TimeEST,TemperatureF,Dew PointF,Humidity,Sea Level PressureIn,VisibilityMPH,Wind Direction,Wind SpeedMPH,Gust SpeedMPH,PrecipitationIn,Events,Conditions,WindDirDegrees,DateUTC
12:48 AM,23.0,23.0,100,-9999,0.1,West,47.2,-,N/A,Fog,Light Freezing Fog,270,2011-11-13 05:48:00
1:57 AM,24.8,23.0,93,-9999,80.0,West,43.7,-,N/A,,Partly Cloudy,270,2011-11-13 06:57:00
2:58 AM,24.8,23.0,93,-9999,80.0,West,49.5,54.1,N/A,,Partly Cloudy,270,2011-11-13 07:58:00
3:53 AM,26.6,24.8,93,-9999,70.0,West,50.6,-,N/A,,Partly Cloudy,270,2011-11-13 08:53:00
4:54 AM,27.1,25.7,94,-9999,70.0,West,46.0,-,N/A,,Scattered Clouds,270,2011-11-13 09:54:00
5:56 AM,28.4,24.8,86,-9999,70.0,West,43.7,-,N/A,,Scattered Clouds,260,2011-11-13 10:56:00
6:52 AM,30.2,26.6,86,-9999,70.0,WSW,41.4,-,N/A,,Mostly Cloudy,250,2011-11-13 11:52:00
7:48 AM,30.2,24.8,80,-9999,50.0,WSW,42.6,-,N/A,,Mostly Cloudy,240,2011-11-13 12:48:00
8:59 AM,32.0,24.8,75,-9999,40.0,WSW,35.7,-,N/A,,Mostly Cloudy,240,2011-11-13 13:59:00
9:55 AM,30.2,26.6,86,-9999,40.0,SW,42.6,46.0,N/A,,Overcast,230,2011-11-13 14:55:00
10:59 AM,30.2,24.8,80,-9999,60.0,SW,39.1,54.1,N/A,,Overcast,220,2011-11-13 15:59:00
11:55 AM,32.0,23.0,69,-9999,60.0,SW,35.7,55.2,N/A,,Mostly Cloudy,220,2011-11-13 16:55:00
12:57 PM,32.0,23.0,69,-9999,60.0,SW,36.8,48.3,N/A,,Mostly Cloudy,230,2011-11-13 17:57:00
1:54 PM,32.0,23.0,69,-9999,80.0,SSW,38.0,43.7,N/A,,Mostly Cloudy,210,2011-11-13 18:54:00
2:53 PM,33.8,17.6,52,-9999,80.0,SW,51.8,61.0,N/A,,Overcast,230,2011-11-13 19:53:00
3:56 PM,35.6,12.2,38,-9999,80.0,SW,46.0,59.8,N/A,,Overcast,230,2011-11-13 20:56:00
4:53 PM,33.8,14.0,44,-9999,80.0,WSW,48.3,57.5,N/A,,Overcast,240,2011-11-13 21:53:00
5:57 PM,33.8,14.0,44,-9999,80.0,SW,48.3,57.5,N/A,,Overcast,230,2011-11-13 22:57:00
6:54 PM,32.0,14.0,48,-9999,80.0,WSW,43.7,54.1,N/A,,Overcast,240,2011-11-13 23:54:00
7:52 PM,32.0,21.2,64,-9999,80.0,WSW,40.3,50.6,N/A,,Overcast,240,2011-11-14 00:52:00
8:58 PM,33.8,24.8,70,-9999,80.0,WSW,47.2,57.5,N/A,,Overcast,250,2011-11-14 01:58:00
9:55 PM,33.8,32.0,93,-9999,70.0,WSW,52.9,-,N/A,,Overcast,250,2011-11-14 02:55:00
10:56 PM,32.0,32.0,100,-9999,50.0,WSW,44.9,54.1,N/A,,Overcast,250,2011-11-14 03:56:00
11:54 PM,33.8,32.0,93,-9999,40.0,West,43.7,52.9,N/A,,Overcast,260,2011-11-14 04:54:00